sensor_id;sensor_type;location;lat;lon;timestamp;temperature;humidity
8711;DHT22;4392;47.400;8.062;2023-02-28T00:01:30;4.10;74.00
8711;DHT22;4392;47.400;8.062;2023-02-28T00:06:52;3.90;74.30
8711;DHT22;4392;47.400;8.062;2023-02-28T00:09:18;3.70;75.00
8711;DHT22;4392;47.400;8.062;2023-02-28T00:11:44;3.80;74.90
8711;DHT22;4392;47.400;8.062;2023-02-28T00:14:16;3.80;74.50
8711;DHT22;4392;47.400;8.062;2023-02-28T00:16:42;3.80;74.60
8711;DHT22;4392;47.400;8.062;2023-02-28T00:19:08;3.80;74.80
8711;DHT22;4392;47.400;8.062;2023-02-28T00:21:33;3.80;74.60
8711;DHT22;4392;47.400;8.062;2023-02-28T00:24:06;3.80;74.60
8711;DHT22;4392;47.400;8.062;2023-02-28T00:26:31;3.70;74.60
8711;DHT22;4392;47.400;8.062;2023-02-28T00:28:57;3.70;74.50
8711;DHT22;4392;47.400;8.062;2023-02-28T00:31:26;3.80;76.00
8711;DHT22;4392;47.400;8.062;2023-02-28T00:33:54;4.00;75.90
8711;DHT22;4392;47.400;8.062;2023-02-28T00:36:22;4.00;75.00
8711;DHT22;4392;47.400;8.062;2023-02-28T00:38:50;3.90;74.60
8711;DHT22;4392;47.400;8.062;2023-02-28T00:41:15;3.80;74.40
8711;DHT22;4392;47.400;8.062;2023-02-28T00:43:43;3.80;74.60
8711;DHT22;4392;47.400;8.062;2023-02-28T00:46:14;3.80;74.50
8711;DHT22;4392;47.400;8.062;2023-02-28T00:48:39;3.70;74.50
8711;DHT22;4392;47.400;8.062;2023-02-28T00:51:05;3.70;74.40
8711;DHT22;4392;47.400;8.062;2023-02-28T00:53:32;3.70;74.50
8711;DHT22;4392;47.400;8.062;2023-02-28T00:55:58;3.70;74.60
8711;DHT22;4392;47.400;8.062;2023-02-28T00:58:24;3.70;74.80
8711;DHT22;4392;47.400;8.062;2023-02-28T01:00:52;3.70;74.80
8711;DHT22;4392;47.400;8.062;2023-02-28T01:03:19;3.70;74.70
8711;DHT22;4392;47.400;8.062;2023-02-28T01:05:52;3.60;74.80
8711;DHT22;4392;47.400;8.062;2023-02-28T01:08:18;3.60;75.00
8711;DHT22;4392;47.400;8.062;2023-02-28T01:10:50;3.60;75.00
8711;DHT22;4392;47.400;8.062;2023-02-28T01:13:19;3.70;75.20
8711;DHT22;4392;47.400;8.062;2023-02-28T01:15:53;3.60;75.50
8711;DHT22;4392;47.400;8.062;2023-02-28T01:18:20;3.60;74.80
8711;DHT22;4392;47.400;8.062;2023-02-28T01:20:50;3.80;76.90
8711;DHT22;4392;47.400;8.062;2023-02-28T01:23:18;3.70;75.00
8711;DHT22;4392;47.400;8.062;2023-02-28T01:25:50;3.70;75.50
8711;DHT22;4392;47.400;8.062;2023-02-28T01:28:16;3.80;75.10
8711;DHT22;4392;47.400;8.062;2023-02-28T01:30:42;3.70;74.80
8711;DHT22;4392;47.400;8.062;2023-02-28T01:33:13;3.70;74.70
8711;DHT22;4392;47.400;8.062;2023-02-28T01:35:45;3.60;74.50
8711;DHT22;4392;47.400;8.062;2023-02-28T01:38:10;3.50;75.30
8711;DHT22;4392;47.400;8.062;2023-02-28T01:40:37;3.50;75.70
8711;DHT22;4392;47.400;8.062;2023-02-28T01:43:04;3.50;76.00
8711;DHT22;4392;47.400;8.062;2023-02-28T01:45:39;3.60;75.90
8711;DHT22;4392;47.400;8.062;2023-02-28T01:48:11;3.60;75.40
8711;DHT22;4392;47.400;8.062;2023-02-28T01:50:42;3.50;75.30
8711;DHT22;4392;47.400;8.062;2023-02-28T01:53:19;3.60;75.40
8711;DHT22;4392;47.400;8.062;2023-02-28T01:55:49;3.50;75.50
8711;DHT22;4392;47.400;8.062;2023-02-28T01:58:24;3.60;75.40
8711;DHT22;4392;47.400;8.062;2023-02-28T02:00:50;3.60;75.30
8711;DHT22;4392;47.400;8.062;2023-02-28T02:03:18;3.60;75.50
8711;DHT22;4392;47.400;8.062;2023-02-28T02:05:47;3.60;75.60
8711;DHT22;4392;47.400;8.062;2023-02-28T02:08:17;3.60;75.60
8711;DHT22;4392;47.400;8.062;2023-02-28T02:10:48;3.60;75.50
8711;DHT22;4392;47.400;8.062;2023-02-28T02:18:54;3.70;76.00
8711;DHT22;4392;47.400;8.062;2023-02-28T02:27:36;3.60;75.60
8711;DHT22;4392;47.400;8.062;2023-02-28T02:41:24;3.90;75.20
8711;DHT22;4392;47.400;8.062;2023-02-28T02:47:07;4.00;77.60
8711;DHT22;4392;47.400;8.062;2023-02-28T02:49:36;3.90;75.70
8711;DHT22;4392;47.400;8.062;2023-02-28T02:52:10;3.80;75.50
8711;DHT22;4392;47.400;8.062;2023-02-28T02:54:44;3.70;75.50
8711;DHT22;4392;47.400;8.062;2023-02-28T02:57:23;3.70;75.50
8711;DHT22;4392;47.400;8.062;2023-02-28T02:59:56;3.60;75.60
8711;DHT22;4392;47.400;8.062;2023-02-28T03:02:24;3.60;75.80
8711;DHT22;4392;47.400;8.062;2023-02-28T03:04:59;3.60;75.90
8711;DHT22;4392;47.400;8.062;2023-02-28T03:07:32;3.60;76.00
8711;DHT22;4392;47.400;8.062;2023-02-28T03:10:00;3.60;75.80
8711;DHT22;4392;47.400;8.062;2023-02-28T03:12:45;3.60;76.10
8711;DHT22;4392;47.400;8.062;2023-02-28T03:18:40;3.60;76.50
8711;DHT22;4392;47.400;8.062;2023-02-28T03:21:24;3.60;76.30
8711;DHT22;4392;47.400;8.062;2023-02-28T03:27:11;3.80;76.60
8711;DHT22;4392;47.400;8.062;2023-02-28T03:29:43;3.90;76.30
8711;DHT22;4392;47.400;8.062;2023-02-28T03:32:14;3.90;76.10
8711;DHT22;4392;47.400;8.062;2023-02-28T03:38:15;3.90;76.80
8711;DHT22;4392;47.400;8.062;2023-02-28T03:40:50;4.00;84.20
8711;DHT22;4392;47.400;8.062;2023-02-28T03:43:24;4.00;77.60
8711;DHT22;4392;47.400;8.062;2023-02-28T03:45:53;3.90;77.40
8711;DHT22;4392;47.400;8.062;2023-02-28T03:48:43;3.80;77.30
8711;DHT22;4392;47.400;8.062;2023-02-28T03:51:17;3.70;77.50
8711;DHT22;4392;47.400;8.062;2023-02-28T03:53:50;3.60;77.50
8711;DHT22;4392;47.400;8.062;2023-02-28T03:56:29;3.60;76.80
8711;DHT22;4392;47.400;8.062;2023-02-28T03:59:19;3.60;77.00
8711;DHT22;4392;47.400;8.062;2023-02-28T04:01:48;3.60;77.90
8711;DHT22;4392;47.400;8.062;2023-02-28T04:04:18;3.60;77.60
8711;DHT22;4392;47.400;8.062;2023-02-28T04:06:44;3.60;76.90
8711;DHT22;4392;47.400;8.062;2023-02-28T04:09:14;3.60;77.20
8711;DHT22;4392;47.400;8.062;2023-02-28T04:11:54;3.90;91.10
8711;DHT22;4392;47.400;8.062;2023-02-28T04:14:23;4.20;82.40
8711;DHT22;4392;47.400;8.062;2023-02-28T04:16:55;3.90;79.30
8711;DHT22;4392;47.400;8.062;2023-02-28T04:19:22;3.60;77.70
8711;DHT22;4392;47.400;8.062;2023-02-28T04:21:50;3.50;77.40
8711;DHT22;4392;47.400;8.062;2023-02-28T04:24:27;3.40;77.30
8711;DHT22;4392;47.400;8.062;2023-02-28T04:26:57;3.40;77.20
8711;DHT22;4392;47.400;8.062;2023-02-28T04:31:57;3.30;76.80
8711;DHT22;4392;47.400;8.062;2023-02-28T04:34:32;3.30;77.10
8711;DHT22;4392;47.400;8.062;2023-02-28T04:36:58;3.30;77.30
8711;DHT22;4392;47.400;8.062;2023-02-28T04:39:25;3.30;77.10
8711;DHT22;4392;47.400;8.062;2023-02-28T04:41:51;3.40;77.30
8711;DHT22;4392;47.400;8.062;2023-02-28T04:44:19;3.50;77.00
8711;DHT22;4392;47.400;8.062;2023-02-28T04:46:48;3.40;77.10
8711;DHT22;4392;47.400;8.062;2023-02-28T04:49:14;4.30;99.90
8711;DHT22;4392;47.400;8.062;2023-02-28T04:51:44;4.40;82.30
8711;DHT22;4392;47.400;8.062;2023-02-28T04:54:10;3.90;78.00
8711;DHT22;4392;47.400;8.062;2023-02-28T04:56:36;3.70;78.30
8711;DHT22;4392;47.400;8.062;2023-02-28T04:59:01;3.60;78.50
8711;DHT22;4392;47.400;8.062;2023-02-28T05:01:30;3.50;78.30
8711;DHT22;4392;47.400;8.062;2023-02-28T05:04:00;3.50;78.40
8711;DHT22;4392;47.400;8.062;2023-02-28T05:06:31;3.50;78.20
8711;DHT22;4392;47.400;8.062;2023-02-28T05:08:59;3.50;78.20
8711;DHT22;4392;47.400;8.062;2023-02-28T05:11:27;3.40;77.80
8711;DHT22;4392;47.400;8.062;2023-02-28T05:13:58;3.40;77.50
8711;DHT22;4392;47.400;8.062;2023-02-28T05:16:23;3.40;77.70
8711;DHT22;4392;47.400;8.062;2023-02-28T05:18:49;3.40;78.20
8711;DHT22;4392;47.400;8.062;2023-02-28T05:21:39;3.40;78.30
8711;DHT22;4392;47.400;8.062;2023-02-28T05:24:14;3.30;77.90
8711;DHT22;4392;47.400;8.062;2023-02-28T05:26:41;3.30;77.80
8711;DHT22;4392;47.400;8.062;2023-02-28T05:29:10;3.40;78.20
8711;DHT22;4392;47.400;8.062;2023-02-28T05:31:38;3.30;78.20
8711;DHT22;4392;47.400;8.062;2023-02-28T05:34:03;3.30;78.00
8711;DHT22;4392;47.400;8.062;2023-02-28T05:36:29;3.30;78.10
8711;DHT22;4392;47.400;8.062;2023-02-28T05:38:58;3.30;78.10
8711;DHT22;4392;47.400;8.062;2023-02-28T05:41:24;3.40;78.20
8711;DHT22;4392;47.400;8.062;2023-02-28T05:43:51;3.70;90.60
8711;DHT22;4392;47.400;8.062;2023-02-28T05:46:17;6.00;99.90
8711;DHT22;4392;47.400;8.062;2023-02-28T05:48:51;7.10;99.00
8711;DHT22;4392;47.400;8.062;2023-02-28T05:51:17;7.60;91.80
8711;DHT22;4392;47.400;8.062;2023-02-28T05:53:43;8.10;87.60
8711;DHT22;4392;47.400;8.062;2023-02-28T05:56:09;7.00;67.40
8711;DHT22;4392;47.400;8.062;2023-02-28T05:58:39;5.60;70.10
8711;DHT22;4392;47.400;8.062;2023-02-28T06:01:40;4.80;72.50
8711;DHT22;4392;47.400;8.062;2023-02-28T06:04:08;4.40;74.00
8711;DHT22;4392;47.400;8.062;2023-02-28T06:06:35;4.10;74.90
8711;DHT22;4392;47.400;8.062;2023-02-28T06:09:05;4.00;75.40
8711;DHT22;4392;47.400;8.062;2023-02-28T06:11:31;3.80;75.20
8711;DHT22;4392;47.400;8.062;2023-02-28T06:13:58;3.70;75.50
8711;DHT22;4392;47.400;8.062;2023-02-28T06:16:26;3.60;75.60
8711;DHT22;4392;47.400;8.062;2023-02-28T06:18:58;3.60;75.90
8711;DHT22;4392;47.400;8.062;2023-02-28T06:21:25;3.50;76.00
8711;DHT22;4392;47.400;8.062;2023-02-28T06:23:58;3.50;75.90
8711;DHT22;4392;47.400;8.062;2023-02-28T06:26:24;3.50;76.00
8711;DHT22;4392;47.400;8.062;2023-02-28T06:28:50;3.40;76.70
8711;DHT22;4392;47.400;8.062;2023-02-28T06:31:19;3.70;78.80
8711;DHT22;4392;47.400;8.062;2023-02-28T06:33:45;3.60;76.60
8711;DHT22;4392;47.400;8.062;2023-02-28T06:36:13;3.50;76.20
8711;DHT22;4392;47.400;8.062;2023-02-28T06:38:45;3.40;76.30
8711;DHT22;4392;47.400;8.062;2023-02-28T06:41:11;3.40;76.40
8711;DHT22;4392;47.400;8.062;2023-02-28T06:43:44;3.40;76.30
8711;DHT22;4392;47.400;8.062;2023-02-28T06:46:12;3.30;76.60
8711;DHT22;4392;47.400;8.062;2023-02-28T06:48:44;3.30;76.50
8711;DHT22;4392;47.400;8.062;2023-02-28T06:51:18;3.30;76.60
8711;DHT22;4392;47.400;8.062;2023-02-28T06:53:46;3.30;76.50
8711;DHT22;4392;47.400;8.062;2023-02-28T06:56:16;3.30;76.50
8711;DHT22;4392;47.400;8.062;2023-02-28T06:58:42;3.50;78.50
8711;DHT22;4392;47.400;8.062;2023-02-28T07:01:11;3.40;77.50
8711;DHT22;4392;47.400;8.062;2023-02-28T07:03:42;3.40;77.30
8711;DHT22;4392;47.400;8.062;2023-02-28T07:06:08;3.40;77.00
8711;DHT22;4392;47.400;8.062;2023-02-28T07:08:34;3.40;76.70
8711;DHT22;4392;47.400;8.062;2023-02-28T07:11:04;3.30;76.40
8711;DHT22;4392;47.400;8.062;2023-02-28T07:13:30;3.30;76.90
8711;DHT22;4392;47.400;8.062;2023-02-28T07:18:33;3.50;77.20
8711;DHT22;4392;47.400;8.062;2023-02-28T07:21:07;3.50;77.00
8711;DHT22;4392;47.400;8.062;2023-02-28T07:23:34;3.50;77.10
8711;DHT22;4392;47.400;8.062;2023-02-28T07:25:59;3.50;77.20
8711;DHT22;4392;47.400;8.062;2023-02-28T07:28:28;3.50;77.10
8711;DHT22;4392;47.400;8.062;2023-02-28T07:30:56;3.50;77.00
8711;DHT22;4392;47.400;8.062;2023-02-28T07:33:21;3.50;76.60
8711;DHT22;4392;47.400;8.062;2023-02-28T07:35:51;3.50;76.60
8711;DHT22;4392;47.400;8.062;2023-02-28T07:38:22;3.50;76.90
8711;DHT22;4392;47.400;8.062;2023-02-28T07:40:47;3.50;77.00
8711;DHT22;4392;47.400;8.062;2023-02-28T07:43:13;3.40;77.10
8711;DHT22;4392;47.400;8.062;2023-02-28T07:45:39;3.50;78.90
8711;DHT22;4392;47.400;8.062;2023-02-28T07:48:11;3.50;77.40
8711;DHT22;4392;47.400;8.062;2023-02-28T07:50:36;3.60;80.20
8711;DHT22;4392;47.400;8.062;2023-02-28T07:53:03;4.00;80.70
8711;DHT22;4392;47.400;8.062;2023-02-28T07:55:29;3.90;77.10
8711;DHT22;4392;47.400;8.062;2023-02-28T07:58:01;3.80;76.70
8711;DHT22;4392;47.400;8.062;2023-02-28T08:00:27;3.80;76.70
8711;DHT22;4392;47.400;8.062;2023-02-28T08:02:54;3.70;76.60
8711;DHT22;4392;47.400;8.062;2023-02-28T08:05:22;3.70;76.50
8711;DHT22;4392;47.400;8.062;2023-02-28T08:07:49;3.60;76.50
8711;DHT22;4392;47.400;8.062;2023-02-28T08:10:15;3.60;76.90
8711;DHT22;4392;47.400;8.062;2023-02-28T08:12:48;3.70;77.20
8711;DHT22;4392;47.400;8.062;2023-02-28T08:15:16;3.70;77.00
8711;DHT22;4392;47.400;8.062;2023-02-28T08:17:42;3.70;76.70
8711;DHT22;4392;47.400;8.062;2023-02-28T08:20:12;3.70;76.60
8711;DHT22;4392;47.400;8.062;2023-02-28T08:22:37;3.70;76.60
8711;DHT22;4392;47.400;8.062;2023-02-28T08:25:06;3.70;76.60
8711;DHT22;4392;47.400;8.062;2023-02-28T08:27:32;3.70;76.90
8711;DHT22;4392;47.400;8.062;2023-02-28T08:29:59;3.70;76.80
8711;DHT22;4392;47.400;8.062;2023-02-28T08:32:25;3.70;77.10
8711;DHT22;4392;47.400;8.062;2023-02-28T08:34:51;3.80;76.80
8711;DHT22;4392;47.400;8.062;2023-02-28T08:37:17;3.80;76.90
8711;DHT22;4392;47.400;8.062;2023-02-28T08:39:45;4.00;86.10
8711;DHT22;4392;47.400;8.062;2023-02-28T08:42:16;4.20;78.60
8711;DHT22;4392;47.400;8.062;2023-02-28T08:44:42;4.10;76.60
8711;DHT22;4392;47.400;8.062;2023-02-28T08:47:08;4.00;76.10
8711;DHT22;4392;47.400;8.062;2023-02-28T08:49:37;4.00;76.30
8711;DHT22;4392;47.400;8.062;2023-02-28T08:52:03;4.00;76.10
8711;DHT22;4392;47.400;8.062;2023-02-28T08:54:31;4.00;76.30
8711;DHT22;4392;47.400;8.062;2023-02-28T08:56:59;4.00;76.40
8711;DHT22;4392;47.400;8.062;2023-02-28T08:59:28;4.00;76.00
8711;DHT22;4392;47.400;8.062;2023-02-28T09:01:53;4.10;75.80
8711;DHT22;4392;47.400;8.062;2023-02-28T09:04:20;4.10;75.70
8711;DHT22;4392;47.400;8.062;2023-02-28T09:06:49;4.30;85.00
8711;DHT22;4392;47.400;8.062;2023-02-28T09:09:15;6.10;91.30
8711;DHT22;4392;47.400;8.062;2023-02-28T09:11:43;7.10;88.50
8711;DHT22;4392;47.400;8.062;2023-02-28T09:14:13;7.70;84.90
8711;DHT22;4392;47.400;8.062;2023-02-28T09:16:39;7.60;81.90
8711;DHT22;4392;47.400;8.062;2023-02-28T09:19:04;7.90;79.40
8711;DHT22;4392;47.400;8.062;2023-02-28T09:21:30;7.90;76.70
8711;DHT22;4392;47.400;8.062;2023-02-28T09:24:02;7.80;75.00
8711;DHT22;4392;47.400;8.062;2023-02-28T09:26:28;8.00;75.30
8711;DHT22;4392;47.400;8.062;2023-02-28T09:28:57;8.10;73.20
8711;DHT22;4392;47.400;8.062;2023-02-28T09:31:30;8.20;71.60
8711;DHT22;4392;47.400;8.062;2023-02-28T09:33:57;7.70;64.90
8711;DHT22;4392;47.400;8.062;2023-02-28T09:36:26;6.60;65.00
8711;DHT22;4392;47.400;8.062;2023-02-28T09:38:53;6.70;67.80
8711;DHT22;4392;47.400;8.062;2023-02-28T09:43:59;7.10;66.20
8711;DHT22;4392;47.400;8.062;2023-02-28T09:46:37;6.30;65.80
8711;DHT22;4392;47.400;8.062;2023-02-28T09:49:18;5.70;67.30
8711;DHT22;4392;47.400;8.062;2023-02-28T09:54:34;5.40;69.00
8711;DHT22;4392;47.400;8.062;2023-02-28T09:57:13;5.20;69.00
8711;DHT22;4392;47.400;8.062;2023-02-28T10:02:58;5.10;69.70
8711;DHT22;4392;47.400;8.062;2023-02-28T10:09:01;5.10;69.80
8711;DHT22;4392;47.400;8.062;2023-02-28T10:11:36;5.00;69.80
8711;DHT22;4392;47.400;8.062;2023-02-28T10:14:21;5.00;70.40
8711;DHT22;4392;47.400;8.062;2023-02-28T10:19:38;5.20;70.20
8711;DHT22;4392;47.400;8.062;2023-02-28T10:24:47;5.20;70.30
8711;DHT22;4392;47.400;8.062;2023-02-28T10:27:23;5.20;70.40
8711;DHT22;4392;47.400;8.062;2023-02-28T10:29:59;5.10;69.80
8711;DHT22;4392;47.400;8.062;2023-02-28T10:32:32;5.10;69.40
8711;DHT22;4392;47.400;8.062;2023-02-28T10:35:22;5.10;69.90
8711;DHT22;4392;47.400;8.062;2023-02-28T10:37:48;5.10;70.00
8711;DHT22;4392;47.400;8.062;2023-02-28T10:45:27;5.10;70.00
8711;DHT22;4392;47.400;8.062;2023-02-28T10:48:05;5.10;70.00
8711;DHT22;4392;47.400;8.062;2023-02-28T11:01:08;4.90;70.30
8711;DHT22;4392;47.400;8.062;2023-02-28T11:03:36;4.90;70.70
8711;DHT22;4392;47.400;8.062;2023-02-28T11:06:13;5.10;77.60
8711;DHT22;4392;47.400;8.062;2023-02-28T11:08:55;5.30;71.80
8711;DHT22;4392;47.400;8.062;2023-02-28T11:11:25;5.10;69.80
8711;DHT22;4392;47.400;8.062;2023-02-28T11:14:06;6.70;85.00
8711;DHT22;4392;47.400;8.062;2023-02-28T11:16:37;5.30;68.10
8711;DHT22;4392;47.400;8.062;2023-02-28T11:19:26;5.00;69.90
8711;DHT22;4392;47.400;8.062;2023-02-28T11:22:04;5.00;69.80
8711;DHT22;4392;47.400;8.062;2023-02-28T11:24:42;5.00;70.00
8711;DHT22;4392;47.400;8.062;2023-02-28T11:30:00;5.00;69.90
8711;DHT22;4392;47.400;8.062;2023-02-28T11:32:30;4.90;70.00
8711;DHT22;4392;47.400;8.062;2023-02-28T11:35:18;5.00;70.20
8711;DHT22;4392;47.400;8.062;2023-02-28T11:37:49;6.60;82.00
8711;DHT22;4392;47.400;8.062;2023-02-28T11:40:18;7.50;71.60
8711;DHT22;4392;47.400;8.062;2023-02-28T11:48:54;5.50;67.70
8711;DHT22;4392;47.400;8.062;2023-02-28T11:51:35;6.00;77.20
8711;DHT22;4392;47.400;8.062;2023-02-28T11:54:50;6.20;68.50
8711;DHT22;4392;47.400;8.062;2023-02-28T11:57:49;5.40;66.20
8711;DHT22;4392;47.400;8.062;2023-02-28T12:11:56;4.40;69.50
8711;DHT22;4392;47.400;8.062;2023-02-28T12:28:46;4.70;70.70
8711;DHT22;4392;47.400;8.062;2023-02-28T12:31:32;4.70;70.50
8711;DHT22;4392;47.400;8.062;2023-02-28T12:34:12;4.40;69.90
8711;DHT22;4392;47.400;8.062;2023-02-28T12:36:44;4.50;70.40
8711;DHT22;4392;47.400;8.062;2023-02-28T12:39:23;4.30;71.30
8711;DHT22;4392;47.400;8.062;2023-02-28T12:41:58;4.30;70.80
8711;DHT22;4392;47.400;8.062;2023-02-28T12:47:03;4.50;70.70
8711;DHT22;4392;47.400;8.062;2023-02-28T12:55:41;4.00;71.10
8711;DHT22;4392;47.400;8.062;2023-02-28T13:01:24;4.40;70.10
8711;DHT22;4392;47.400;8.062;2023-02-28T13:09:33;4.10;70.40
8711;DHT22;4392;47.400;8.062;2023-02-28T13:11:59;4.20;70.40
8711;DHT22;4392;47.400;8.062;2023-02-28T13:14:48;4.00;70.80
8711;DHT22;4392;47.400;8.062;2023-02-28T13:17:23;4.20;70.60
8711;DHT22;4392;47.400;8.062;2023-02-28T13:20:15;4.30;70.40
8711;DHT22;4392;47.400;8.062;2023-02-28T13:22:47;4.00;70.50
8711;DHT22;4392;47.400;8.062;2023-02-28T13:27:50;3.90;70.90
8711;DHT22;4392;47.400;8.062;2023-02-28T13:33:36;3.90;71.60
8711;DHT22;4392;47.400;8.062;2023-02-28T13:36:36;3.90;72.00
8711;DHT22;4392;47.400;8.062;2023-02-28T13:42:46;4.10;71.80
8711;DHT22;4392;47.400;8.062;2023-02-28T13:45:30;4.20;71.90
8711;DHT22;4392;47.400;8.062;2023-02-28T13:48:17;4.30;71.50
8711;DHT22;4392;47.400;8.062;2023-02-28T13:50:49;4.30;71.70
8711;DHT22;4392;47.400;8.062;2023-02-28T13:55:53;4.30;70.90
8711;DHT22;4392;47.400;8.062;2023-02-28T14:07:16;4.00;71.80
8711;DHT22;4392;47.400;8.062;2023-02-28T14:09:51;4.10;71.40
8711;DHT22;4392;47.400;8.062;2023-02-28T14:18:35;4.20;71.50
8711;DHT22;4392;47.400;8.062;2023-02-28T14:24:25;4.20;72.30
8711;DHT22;4392;47.400;8.062;2023-02-28T14:32:56;4.30;71.60
8711;DHT22;4392;47.400;8.062;2023-02-28T14:38:45;4.10;72.30
8711;DHT22;4392;47.400;8.062;2023-02-28T14:41:22;4.20;72.10
8711;DHT22;4392;47.400;8.062;2023-02-28T14:43:55;4.20;72.00
8711;DHT22;4392;47.400;8.062;2023-02-28T14:46:26;4.20;71.80
8711;DHT22;4392;47.400;8.062;2023-02-28T14:48:52;4.10;71.40
8711;DHT22;4392;47.400;8.062;2023-02-28T14:51:20;4.10;72.10
8711;DHT22;4392;47.400;8.062;2023-02-28T14:53:57;4.10;72.10
8711;DHT22;4392;47.400;8.062;2023-02-28T14:56:38;4.20;72.20
8711;DHT22;4392;47.400;8.062;2023-02-28T14:59:17;4.20;71.90
8711;DHT22;4392;47.400;8.062;2023-02-28T15:02:17;4.20;71.50
8711;DHT22;4392;47.400;8.062;2023-02-28T15:04:46;4.20;71.90
8711;DHT22;4392;47.400;8.062;2023-02-28T15:07:17;4.20;72.00
8711;DHT22;4392;47.400;8.062;2023-02-28T15:09:43;4.20;72.30
8711;DHT22;4392;47.400;8.062;2023-02-28T15:12:20;4.20;72.50
8711;DHT22;4392;47.400;8.062;2023-02-28T15:14:46;4.20;72.40
8711;DHT22;4392;47.400;8.062;2023-02-28T15:17:23;4.20;72.00
8711;DHT22;4392;47.400;8.062;2023-02-28T15:19:54;4.20;72.40
8711;DHT22;4392;47.400;8.062;2023-02-28T15:22:35;4.20;72.40
8711;DHT22;4392;47.400;8.062;2023-02-28T15:25:09;4.20;72.20
8711;DHT22;4392;47.400;8.062;2023-02-28T15:27:44;4.20;72.30
8711;DHT22;4392;47.400;8.062;2023-02-28T15:30:28;4.20;72.50
8711;DHT22;4392;47.400;8.062;2023-02-28T15:33:23;4.10;72.60
8711;DHT22;4392;47.400;8.062;2023-02-28T15:36:13;4.20;72.90
8711;DHT22;4392;47.400;8.062;2023-02-28T15:38:42;4.20;72.80
8711;DHT22;4392;47.400;8.062;2023-02-28T15:41:36;4.20;72.70
8711;DHT22;4392;47.400;8.062;2023-02-28T15:44:33;4.10;72.80
8711;DHT22;4392;47.400;8.062;2023-02-28T15:47:02;4.10;73.10
8711;DHT22;4392;47.400;8.062;2023-02-28T15:49:58;4.00;73.30
8711;DHT22;4392;47.400;8.062;2023-02-28T15:55:22;4.10;73.20
8711;DHT22;4392;47.400;8.062;2023-02-28T15:57:55;4.10;73.30
8711;DHT22;4392;47.400;8.062;2023-02-28T16:00:28;4.20;73.20
8711;DHT22;4392;47.400;8.062;2023-02-28T16:02:55;4.10;72.80
8711;DHT22;4392;47.400;8.062;2023-02-28T16:05:31;4.10;72.90
8711;DHT22;4392;47.400;8.062;2023-02-28T16:08:11;4.10;73.00
8711;DHT22;4392;47.400;8.062;2023-02-28T16:10:37;4.10;73.20
8711;DHT22;4392;47.400;8.062;2023-02-28T16:13:03;4.20;73.10
8711;DHT22;4392;47.400;8.062;2023-02-28T16:15:44;4.10;73.10
8711;DHT22;4392;47.400;8.062;2023-02-28T16:18:13;4.10;73.30
8711;DHT22;4392;47.400;8.062;2023-02-28T16:20:39;4.00;73.30
8711;DHT22;4392;47.400;8.062;2023-02-28T16:23:09;4.00;74.10
8711;DHT22;4392;47.400;8.062;2023-02-28T16:25:45;4.00;73.80
8711;DHT22;4392;47.400;8.062;2023-02-28T16:28:33;4.00;73.70
8711;DHT22;4392;47.400;8.062;2023-02-28T16:31:01;4.00;73.60
8711;DHT22;4392;47.400;8.062;2023-02-28T16:33:37;3.90;73.70
8711;DHT22;4392;47.400;8.062;2023-02-28T16:36:02;3.80;73.80
8711;DHT22;4392;47.400;8.062;2023-02-28T16:38:28;3.80;74.30
8711;DHT22;4392;47.400;8.062;2023-02-28T16:40:59;3.90;73.80
8711;DHT22;4392;47.400;8.062;2023-02-28T16:43:26;3.90;73.30
8711;DHT22;4392;47.400;8.062;2023-02-28T16:45:58;4.00;73.40
8711;DHT22;4392;47.400;8.062;2023-02-28T16:48:25;4.00;73.20
8711;DHT22;4392;47.400;8.062;2023-02-28T16:50:58;4.00;73.10
8711;DHT22;4392;47.400;8.062;2023-02-28T16:53:24;4.00;73.20
8711;DHT22;4392;47.400;8.062;2023-02-28T16:55:53;4.00;73.20
8711;DHT22;4392;47.400;8.062;2023-02-28T16:58:20;4.00;73.30
8711;DHT22;4392;47.400;8.062;2023-02-28T17:00:47;4.00;73.30
8711;DHT22;4392;47.400;8.062;2023-02-28T17:03:23;4.00;73.30
8711;DHT22;4392;47.400;8.062;2023-02-28T17:05:52;4.00;73.40
8711;DHT22;4392;47.400;8.062;2023-02-28T17:08:19;4.00;73.20
8711;DHT22;4392;47.400;8.062;2023-02-28T17:10:45;4.00;73.20
8711;DHT22;4392;47.400;8.062;2023-02-28T17:13:13;4.00;73.30
8711;DHT22;4392;47.400;8.062;2023-02-28T17:15:39;4.00;74.40
8711;DHT22;4392;47.400;8.062;2023-02-28T17:18:12;4.00;73.60
8711;DHT22;4392;47.400;8.062;2023-02-28T17:20:39;4.00;73.70
8711;DHT22;4392;47.400;8.062;2023-02-28T17:23:09;4.00;73.70
8711;DHT22;4392;47.400;8.062;2023-02-28T17:25:35;4.00;73.60
8711;DHT22;4392;47.400;8.062;2023-02-28T17:28:03;4.00;73.50
8711;DHT22;4392;47.400;8.062;2023-02-28T17:30:32;4.00;73.80
8711;DHT22;4392;47.400;8.062;2023-02-28T17:32:58;4.00;73.80
8711;DHT22;4392;47.400;8.062;2023-02-28T17:35:24;4.00;73.80
8711;DHT22;4392;47.400;8.062;2023-02-28T17:37:53;4.00;73.80
8711;DHT22;4392;47.400;8.062;2023-02-28T17:40:22;4.00;74.10
8711;DHT22;4392;47.400;8.062;2023-02-28T17:42:54;4.00;74.20
8711;DHT22;4392;47.400;8.062;2023-02-28T17:45:24;4.00;74.40
8711;DHT22;4392;47.400;8.062;2023-02-28T17:47:52;4.00;74.30
8711;DHT22;4392;47.400;8.062;2023-02-28T17:50:20;4.00;74.30
8711;DHT22;4392;47.400;8.062;2023-02-28T17:52:47;4.00;74.40
8711;DHT22;4392;47.400;8.062;2023-02-28T17:55:12;3.90;74.40
8711;DHT22;4392;47.400;8.062;2023-02-28T17:57:44;3.90;74.60
8711;DHT22;4392;47.400;8.062;2023-02-28T18:00:18;3.90;74.50
8711;DHT22;4392;47.400;8.062;2023-02-28T18:02:44;3.90;74.60
8711;DHT22;4392;47.400;8.062;2023-02-28T18:05:10;3.90;74.60
8711;DHT22;4392;47.400;8.062;2023-02-28T18:07:42;3.90;74.50
8711;DHT22;4392;47.400;8.062;2023-02-28T18:10:14;3.90;74.50
8711;DHT22;4392;47.400;8.062;2023-02-28T18:12:51;3.90;74.60
8711;DHT22;4392;47.400;8.062;2023-02-28T18:15:20;3.90;74.80
8711;DHT22;4392;47.400;8.062;2023-02-28T18:17:49;3.80;74.90
8711;DHT22;4392;47.400;8.062;2023-02-28T18:20:17;3.80;75.00
8711;DHT22;4392;47.400;8.062;2023-02-28T18:22:45;3.80;75.00
8711;DHT22;4392;47.400;8.062;2023-02-28T18:25:12;3.80;75.10
8711;DHT22;4392;47.400;8.062;2023-02-28T18:27:44;3.80;75.10
8711;DHT22;4392;47.400;8.062;2023-02-28T18:30:24;3.80;75.20
8711;DHT22;4392;47.400;8.062;2023-02-28T18:32:50;3.80;75.40
8711;DHT22;4392;47.400;8.062;2023-02-28T18:35:16;3.70;75.50
8711;DHT22;4392;47.400;8.062;2023-02-28T18:38:04;3.70;75.60
8711;DHT22;4392;47.400;8.062;2023-02-28T18:40:32;3.70;75.80
8711;DHT22;4392;47.400;8.062;2023-02-28T18:42:58;3.70;75.90
8711;DHT22;4392;47.400;8.062;2023-02-28T18:45:25;3.70;75.90
8711;DHT22;4392;47.400;8.062;2023-02-28T18:47:53;3.60;75.90
8711;DHT22;4392;47.400;8.062;2023-02-28T18:50:19;3.60;76.20
8711;DHT22;4392;47.400;8.062;2023-02-28T18:52:46;3.60;76.20
8711;DHT22;4392;47.400;8.062;2023-02-28T18:55:12;3.60;76.30
8711;DHT22;4392;47.400;8.062;2023-02-28T18:57:49;3.60;76.40
8711;DHT22;4392;47.400;8.062;2023-02-28T19:00:16;3.60;76.60
8711;DHT22;4392;47.400;8.062;2023-02-28T19:02:55;3.60;76.70
8711;DHT22;4392;47.400;8.062;2023-02-28T19:05:21;3.60;76.90
8711;DHT22;4392;47.400;8.062;2023-02-28T19:07:47;3.50;76.90
8711;DHT22;4392;47.400;8.062;2023-02-28T19:10:13;3.50;77.10
8711;DHT22;4392;47.400;8.062;2023-02-28T19:12:42;3.60;77.00
8711;DHT22;4392;47.400;8.062;2023-02-28T19:15:09;3.50;76.90
8711;DHT22;4392;47.400;8.062;2023-02-28T19:17:35;3.50;77.20
8711;DHT22;4392;47.400;8.062;2023-02-28T19:20:07;3.50;77.40
8711;DHT22;4392;47.400;8.062;2023-02-28T19:22:32;3.40;77.30
8711;DHT22;4392;47.400;8.062;2023-02-28T19:24:58;3.40;77.30
8711;DHT22;4392;47.400;8.062;2023-02-28T19:27:25;3.40;77.40
8711;DHT22;4392;47.400;8.062;2023-02-28T19:29:54;3.50;77.50
8711;DHT22;4392;47.400;8.062;2023-02-28T19:32:24;3.50;77.70
8711;DHT22;4392;47.400;8.062;2023-02-28T19:34:50;3.40;77.60